Latest Weather Observations for Christmas Island

IDW60801

Issued at 10:04 am WST Sunday 28 August 2016 (issued every 30 minutes, with the page automatically refreshed every 10 minutes)

About weather observations | Map of weather stations | Latest weather observations for WA | Other Formats
Station Details ID: 200790 Name: CHRISTMAS ISLAND AERO Lat: -10.45 Lon: 105.69 Height: 261.0 m
Data from the previous 72 hours. | See also: Recent months at Christmas Island
Date/Time
WST
Temp
°C
App
Temp
°C
Dew
Point
°C
Rel
Hum
%
Delta-T
°C
Wind Press
QNH
hPa
Press
MSL
hPa
Rain since
9am
mm
Dir  Spd
km/h
Gust
km/h
Spd
kts
Gust
kts
28/10:00am 25.6 28.7 24.2 92 1.0 N 15 22 8 12 1014.6 1013.2 8.2
28/09:32am 25.4 28.3 23.8 91 1.1 N 15 20 8 11 1014.8 - 8.2
28/09:30am 25.3 28.1 23.7 91 1.1 N 15 24 8 13 1014.8 - 8.2
28/09:00am 25.1 28.0 23.2 89 1.3 NNW 13 19 7 10 1014.1 - 8.2
28/08:30am 24.9 27.0 22.5 86 1.6 NNW 15 20 8 11 1013.6 - 8.2
28/08:00am 24.6 27.8 23.1 91 1.0 NNW 11 17 6 9 1013.4 - 8.2
28/07:30am 24.6 27.5 23.1 91 1.0 NNW 13 17 7 9 1013.0 - 8.2
28/07:00am 24.5 27.3 23.0 91 1.0 NNW 13 26 7 14 1012.8 1011.3 8.2
28/06:30am 24.3 27.4 22.8 91 1.0 NNW 11 17 6 9 1012.7 - 8.2
28/06:00am 24.1 27.2 22.9 93 0.8 NNW 11 17 6 9 1012.5 - 8.2
28/05:47am 24.1 26.8 22.9 93 0.8 NNW 13 19 7 10 1012.5 - 8.2
28/05:30am 24.1 26.5 22.9 93 0.8 NNW 15 22 8 12 1012.5 - 8.2
28/05:00am 24.8 28.1 23.8 94 0.7 NNW 13 20 7 11 1012.2 - 8.2
28/04:51am 24.8 28.1 23.8 94 0.7 NNW 13 20 7 11 1012.1 - 8.2
28/04:30am 24.5 27.5 23.3 93 0.8 NNW 13 19 7 10 1012.1 - 8.2
28/04:00am 24.3 26.9 23.3 94 0.7 N 15 20 8 11 1012.1 1010.6 8.2
28/03:49am 24.3 27.3 23.4 95 0.6 N 13 20 7 11 1012.2 - 8.2
28/03:36am 24.4 27.6 23.7 96 0.5 N 13 19 7 10 1012.2 - 8.2
28/03:30am 24.3 27.4 23.6 96 0.5 N 13 19 7 10 1012.3 - 8.2
28/03:00am 23.9 26.7 23.0 95 0.6 N 13 19 7 10 1012.7 - 8.2
28/02:30am 23.9 26.8 23.2 96 0.5 N 13 19 7 10 1013.0 - 8.2
28/02:00am 23.9 26.3 23.0 95 0.6 N 15 22 8 12 1013.2 - 8.2
28/01:30am 23.7 26.0 22.8 95 0.6 N 15 20 8 11 1013.4 - 8.0
28/01:00am 23.5 25.6 22.5 94 0.7 NNW 15 20 8 11 1013.5 1012.1 8.0
28/12:40am 23.1 24.7 22.1 94 0.7 NW 17 24 9 13 1013.7 - 7.4
28/12:38am 23.1 24.7 22.1 94 0.7 NW 17 24 9 13 1013.7 - 7.4
28/12:30am 23.4 25.1 22.4 94 0.7 NW 17 32 9 17 1013.9 - 6.6
28/12:25am 23.5 24.9 22.5 94 0.7 NW 19 32 10 17 1014.0 - 6.6
28/12:00am 25.1 28.7 24.4 96 0.5 N 13 20 7 11 1013.8 - 4.0
 
Date/Time
WST
Temp
°C
App
Temp
°C
Dew
Point
°C
Rel
Hum
%
Delta-T
°C
Wind Press
QNH
hPa
Press
MSL
hPa
Rain since
9am
mm
Dir  Spd
km/h
Gust
km/h
Spd
kts
Gust
kts
27/11:30pm 25.3 28.9 24.4 95 0.6 N 13 17 7 9 1013.7 - 4.0
27/11:00pm 25.2 29.1 24.3 95 0.6 N 11 15 6 8 1013.6 - 4.0
27/10:30pm 25.3 29.2 24.3 94 0.7 N 11 17 6 9 1013.5 - 4.0
27/10:08pm 25.3 28.9 24.3 94 0.7 N 13 19 7 10 1013.4 - 4.0
27/10:06pm 25.3 28.9 24.3 94 0.7 N 13 19 7 10 1013.4 - 4.0
27/10:00pm 25.2 29.1 24.3 95 0.6 N 11 17 6 9 1013.3 1011.9 4.0
27/09:38pm 25.2 29.3 24.0 93 0.8 NNW 9 15 5 8 1013.3 - 4.0
27/09:30pm 25.1 29.1 23.8 92 0.9 NNW 9 15 5 8 1013.3 - 4.0
27/09:00pm 24.9 28.4 23.6 92 0.9 NNW 11 17 6 9 1013.2 - 4.0
27/08:30pm 25.0 28.1 23.5 91 1.0 NNW 13 20 7 11 1013.0 - 4.0
27/08:29pm 25.0 28.1 23.5 91 1.0 N 13 20 7 11 1013.0 - 4.0
27/08:00pm 25.2 28.5 23.9 92 0.9 NNW 13 19 7 10 1012.6 - 4.0
27/07:30pm 25.2 29.0 24.0 93 0.8 NNW 11 17 6 9 1012.2 - 4.0
27/07:00pm 25.2 28.6 24.0 93 0.8 NNW 13 20 7 11 1011.8 1010.4 4.0
27/06:38pm 25.1 28.2 23.6 91 1.0 NNW 13 20 7 11 1011.7 - 4.0
27/06:30pm 25.1 28.6 23.5 91 1.1 NNW 11 19 6 10 1011.5 - 4.0
27/06:00pm 25.0 28.4 23.4 91 1.1 NNW 11 17 6 9 1011.0 - 4.0
27/05:46pm 25.2 28.8 23.8 92 1.0 NNW 11 17 6 9 1010.9 - 4.0
27/05:30pm 25.1 28.6 23.6 91 1.0 NNW 11 17 6 9 1010.9 - 4.0
27/05:00pm 25.0 27.8 23.7 92 0.9 NNW 15 28 8 15 1010.9 - 4.0
27/04:40pm 25.1 27.5 23.6 91 1.0 NNW 17 28 9 15 1010.8 - 4.0
27/04:30pm 25.0 26.8 23.5 91 1.0 NNW 20 28 11 15 1010.6 - 4.0
27/04:00pm 24.7 26.1 22.9 90 1.2 NW 20 46 11 25 1010.6 1009.2 4.0
27/03:42pm 24.7 27.4 23.4 92 0.9 N 15 22 8 12 1010.8 - 4.0
27/03:30pm 24.5 27.6 23.5 94 0.7 NNW 13 24 7 13 1011.1 - 4.0
27/03:20pm 24.4 26.7 23.4 94 0.7 NNW 17 26 9 14 1011.2 - 4.0
27/03:00pm 24.3 26.9 23.3 94 0.7 N 15 20 8 11 1011.5 - 3.6
27/02:51pm 24.6 26.3 23.1 91 1.0 NNW 19 32 10 17 1011.7 - 1.0
27/02:30pm 26.8 29.7 23.8 83 2.1 NE 15 20 8 11 1011.4 - 0.2
27/02:00pm 27.4 29.8 23.6 80 2.6 NE 17 32 9 17 1011.6 - 0.2
27/01:30pm 27.2 30.5 23.9 82 2.3 NE 13 19 7 10 1011.8 - 0.2
27/01:00pm 27.2 30.4 23.7 81 2.4 NNE 13 20 7 11 1012.4 1010.9 0.2
27/12:30pm 26.9 29.7 23.6 82 2.3 NE 15 20 8 11 1013.0 - 0.2
27/12:03pm 26.2 28.5 23.4 84 1.9 NE 17 24 9 13 1013.5 - 0.2
27/12:00pm 26.7 29.5 23.7 83 2.1 NE 15 20 8 11 1013.5 - 0.2
27/11:30am 27.5 30.3 23.6 79 2.7 NE 15 20 8 11 1013.4 - 0.2
27/11:00am 27.1 30.6 23.6 81 2.4 NE 11 17 6 9 1014.1 - 0.2
27/10:30am 26.4 29.0 22.6 79 2.6 NNE 13 17 7 9 1014.1 - 0.0
27/10:00am 25.8 29.6 23.5 87 1.6 NNE 9 17 5 9 1013.8 1012.4 21.4
27/09:30am 25.1 28.4 22.6 86 1.7 NNW 9 13 5 7 1013.3 - 21.4
27/09:00am 23.4 27.4 22.7 96 0.5 NW 6 7 3 4 1013.4 - 21.4
27/08:55am 23.4 28.1 22.7 96 0.5 NW 2 7 1 4 1013.5 - 21.4
27/08:35am 23.0 25.4 22.3 96 0.5 NNW 13 22 7 12 1013.6 - 15.4
27/08:30am 23.1 25.1 22.2 95 0.6 NNW 15 22 8 12 1013.5 - 9.8
27/08:00am 23.2 24.1 21.5 90 1.1 WNW 19 28 10 15 1012.9 - 0.6
27/07:58am 23.2 23.9 21.5 90 1.1 WNW 20 28 11 15 1012.9 - 0.6
27/07:30am 25.2 28.5 23.8 92 1.0 NNE 13 17 7 9 1012.8 - 0.0
27/07:00am 25.1 28.7 23.8 92 0.9 NNE 11 17 6 9 1012.6 1011.1 0.0
27/06:30am 25.1 28.4 23.8 92 0.9 NNE 13 20 7 11 1012.3 - 0.0
27/06:00am 25.1 28.0 23.8 92 0.9 NE 15 22 8 12 1011.7 - 0.0
27/05:30am 25.1 28.2 23.6 91 1.0 NNE 13 24 7 13 1011.7 - 0.0
27/05:00am 24.9 27.2 23.4 91 1.0 NNE 17 26 9 14 1011.6 - 0.0
27/04:30am 25.0 28.1 24.1 95 0.6 N 15 20 8 11 1011.6 - 0.0
27/04:00am 24.8 29.0 24.1 96 0.5 NNE 9 15 5 8 1011.3 1009.9 0.0
27/03:30am 24.8 28.1 23.9 95 0.6 NNE 13 19 7 10 1011.4 - 0.0
27/03:00am 25.0 28.6 24.3 96 0.5 NE 13 17 7 9 1011.7 - 0.0
27/02:30am 24.9 27.9 24.0 95 0.6 ENE 15 19 8 10 1012.3 - 0.0
27/02:00am 25.0 28.0 24.0 94 0.7 NNE 15 22 8 12 1012.4 - 0.0
27/01:30am 25.0 27.5 23.8 93 0.8 NE 17 24 9 13 1012.7 - 0.0
27/01:00am 25.0 28.4 24.1 95 0.6 NNE 13 20 7 11 1012.9 1011.5 0.0
27/12:30am 24.9 28.1 23.7 93 0.8 ENE 13 19 7 10 1013.2 - 0.0
27/12:00am 24.7 27.8 23.5 93 0.8 ENE 13 20 7 11 1013.3 - 0.0
 
Date/Time
WST
Temp
°C
App
Temp
°C
Dew
Point
°C
Rel
Hum
%
Delta-T
°C
Wind Press
QNH
hPa
Press
MSL
hPa
Rain since
9am
mm
Dir  Spd
km/h
Gust
km/h
Spd
kts
Gust
kts
26/11:30pm 24.5 27.6 23.6 95 0.6 NE 13 22 7 12 1013.4 - 0.0
26/11:00pm 24.5 27.6 23.6 95 0.6 NE 13 19 7 10 1013.3 - 0.0
26/10:30pm 24.6 27.6 23.4 93 0.8 ENE 13 20 7 11 1013.2 - 0.0
26/10:00pm 24.4 27.3 23.1 92 0.9 ENE 13 20 7 11 1013.1 1011.7 0.0
26/09:30pm 24.4 27.1 23.4 94 0.7 NE 15 20 8 11 1012.9 - 0.0
26/09:00pm 24.6 27.7 23.6 94 0.7 NE 13 22 7 12 1012.8 - 0.0
26/08:30pm 24.7 27.6 23.2 91 1.0 ENE 13 20 7 11 1012.7 - 0.0
26/08:00pm 25.3 27.4 23.1 87 1.5 ENE 17 24 9 13 1012.2 - 0.0
26/07:30pm 25.0 27.2 23.2 90 1.2 ENE 17 22 9 12 1011.7 - 0.0
26/07:00pm 24.7 27.6 23.2 91 1.0 E 13 19 7 10 1011.4 1010.0 0.0
26/06:30pm 24.9 27.1 23.3 91 1.1 ENE 17 28 9 15 1011.2 - 0.0
26/06:00pm 25.4 27.2 22.6 84 1.9 ENE 17 26 9 14 1010.8 - 0.0
26/05:30pm 25.4 26.8 22.6 84 1.9 ENE 19 26 10 14 1010.7 - 0.0
26/05:00pm 25.6 27.4 22.5 83 2.1 E 17 26 9 14 1010.5 - 0.0
26/04:30pm 25.8 27.1 22.4 81 2.3 E 19 26 10 14 1010.4 - 0.0
26/04:00pm 25.9 27.2 22.4 81 2.4 E 19 30 10 16 1010.4 1009.0 0.0
26/03:30pm 25.7 27.0 22.3 81 2.3 E 19 30 10 16 1010.4 - 0.0
26/03:00pm 26.2 27.4 22.2 78 2.7 E 19 28 10 15 1010.7 - 0.0
26/02:30pm 25.9 27.1 22.2 80 2.5 E 19 26 10 14 1011.0 - 0.0
26/02:00pm 26.4 27.5 22.4 78 2.7 E 20 28 11 15 1011.1 - 0.0
26/01:30pm 26.0 27.0 22.2 79 2.6 E 20 32 11 17 1011.4 - 0.0
26/01:00pm 26.5 26.9 21.8 75 3.2 E 22 33 12 18 1011.5 1010.1 0.0
26/12:30pm 25.7 27.0 22.6 83 2.1 E 20 33 11 18 1011.8 - 0.0
26/12:11pm 25.5 26.1 22.1 81 2.3 E 22 32 12 17 1012.3 - 0.0
26/12:00pm 25.5 26.8 22.7 84 1.9 E 20 32 11 17 1012.5 - 0.0
26/11:30am 25.7 26.5 21.8 79 2.6 E 20 32 11 17 1012.6 - 0.0
26/11:07am 25.8 26.1 21.6 77 2.8 E 22 35 12 19 1012.9 - 0.0
26/11:00am 25.8 26.1 21.6 77 2.8 E 22 32 12 17 1013.0 - 0.0
26/10:45am 25.8 26.7 21.9 79 2.6 E 20 33 11 18 1013.3 - 0.0
26/10:30am 25.7 26.6 22.0 80 2.5 E 20 32 11 17 1013.4 - 0.0
26/10:20am 26.0 26.8 21.8 77 2.8 E 20 32 11 17 1013.4 - 0.0
26/10:00am 25.3 25.8 22.0 82 2.2 E 22 28 12 15 1013.5 1012.1 0.2
26/09:30am 25.2 25.7 21.9 82 2.2 E 22 32 12 17 1013.3 - 0.2
26/09:00am 25.0 25.4 21.7 82 2.2 E 22 32 12 17 1013.1 - 0.2
26/08:57am 25.1 25.9 21.8 82 2.2 E 20 32 11 17 1013.0 - 0.2
26/08:56am 25.1 25.9 21.7 81 2.3 E 20 32 11 17 1013.1 - 0.2
26/08:32am 24.8 26.2 21.8 83 2.0 E 17 28 9 15 1012.8 - 0.2
26/08:30am 24.8 26.2 21.8 83 2.0 E 17 28 9 15 1012.7 - 0.2
26/08:19am 24.7 26.0 21.6 83 2.1 E 17 24 9 13 1012.7 - 0.2
26/08:00am 24.7 25.6 21.6 83 2.1 E 19 28 10 15 1012.6 - 0.2
26/07:30am 24.6 26.0 21.8 84 1.9 E 17 26 9 14 1012.4 - 0.2
26/07:00am 24.5 25.5 21.7 84 1.9 E 19 28 10 15 1011.8 1010.4 0.2
26/06:30am 24.4 25.3 21.6 84 1.9 E 19 30 10 16 1011.4 - 0.2
26/06:00am 24.5 25.4 21.5 83 2.0 E 19 32 10 17 1011.2 - 0.2
26/05:30am 24.4 25.3 21.6 84 1.9 E 19 32 10 17 1011.1 - 0.2
26/05:04am 24.4 25.3 21.6 84 1.9 E 19 24 10 13 1011.2 - 0.2
26/05:00am 24.4 25.2 21.4 83 2.0 E 19 24 10 13 1011.3 - 0.2
26/04:41am 24.4 25.7 21.7 85 1.8 E 17 28 9 15 1011.4 - 0.2
26/04:30am 24.4 26.1 21.6 84 1.9 E 15 22 8 12 1011.4 - 0.2
26/04:00am 24.3 25.5 21.5 84 1.9 E 17 24 9 13 1011.4 1010.0 0.2
26/03:34am 24.3 25.4 21.3 83 2.0 E 17 28 9 15 1011.5 - 0.2
26/03:30am 24.3 25.9 21.5 84 1.9 E 15 24 8 13 1011.5 - 0.2
26/03:07am 24.3 25.3 21.8 86 1.7 E 19 28 10 15 1011.6 - 0.2
26/03:00am 24.2 25.2 21.7 86 1.7 E 19 28 10 15 1011.7 - 0.2
26/02:30am 24.3 26.0 21.6 85 1.8 E 15 24 8 13 1012.2 - 0.2
26/02:00am 24.2 25.4 21.5 85 1.8 E 17 30 9 16 1012.4 - 0.2
26/01:30am 24.1 25.4 21.6 86 1.7 E 17 26 9 14 1012.5 - 0.2
26/01:00am 24.6 26.2 21.5 83 2.1 E 15 24 8 13 1012.9 1011.5 0.0
26/12:30am 24.7 26.0 21.6 83 2.1 E 17 24 9 13 1013.1 - 0.0
26/12:07am 24.7 25.8 21.2 81 2.3 E 17 26 9 14 1013.1 - 0.0
26/12:00am 24.7 25.4 21.2 81 2.3 E 19 28 10 15 1013.1 - 0.0
 
Date/Time
WST
Temp
°C
App
Temp
°C
Dew
Point
°C
Rel
Hum
%
Delta-T
°C
Wind Press
QNH
hPa
Press
MSL
hPa
Rain since
9am
mm
Dir  Spd
km/h
Gust
km/h
Spd
kts
Gust
kts
25/11:44pm 24.7 26.0 21.7 83 2.0 E 17 28 9 15 1013.1 - 0.0
25/11:30pm 24.7 25.9 21.4 82 2.2 E 17 24 9 13 1013.1 - 0.0
25/11:00pm 24.8 25.9 21.2 80 2.4 E 17 24 9 13 1013.1 - 0.0
25/10:30pm 24.8 25.9 21.2 80 2.4 E 17 24 9 13 1013.3 - 0.0
25/10:00pm 24.8 26.0 21.5 82 2.2 E 17 26 9 14 1013.2 1011.8 0.0
25/09:30pm 24.7 25.7 21.1 80 2.4 E 17 28 9 15 1012.9 - 0.0
25/09:00pm 24.7 25.2 20.1 75 3.0 E 17 28 9 15 1012.6 - 0.0
25/08:30pm 24.6 25.3 20.5 78 2.7 E 17 24 9 13 1012.3 - 0.0
25/08:00pm 24.7 25.3 20.3 76 2.9 E 17 26 9 14 1011.9 - 0.0
25/07:30pm 24.8 25.0 20.2 75 3.0 E 19 28 10 15 1011.5 - 0.0
25/07:00pm 24.9 25.7 20.7 77 2.8 E 17 24 9 13 1011.2 1009.8 0.0
25/06:30pm 25.1 25.5 20.7 76 2.9 E 19 26 10 14 1011.1 - 0.0
25/06:00pm 25.2 26.2 21.1 78 2.7 ESE 17 24 9 13 1010.8 - 0.0
25/05:30pm 25.8 26.5 21.2 76 3.1 E 19 30 10 16 1010.7 - 0.0
25/05:00pm 25.4 26.0 21.0 76 2.9 E 19 26 10 14 1010.7 - 0.0
25/04:30pm 26.0 27.1 21.2 75 3.2 E 17 26 9 14 1010.7 - 0.0
25/04:00pm 25.8 26.4 21.0 75 3.2 E 19 28 10 15 1010.4 1009.0 0.0
25/03:30pm 26.0 26.7 21.2 75 3.2 E 19 30 10 16 1010.6 - 0.0
25/03:00pm 26.7 27.1 21.0 71 3.8 E 20 30 11 16 1010.7 - 0.0
25/02:30pm 26.5 26.5 21.0 72 3.7 ESE 22 35 12 19 1011.1 - 0.0
25/02:00pm 26.3 26.6 20.7 71 3.7 E 20 28 11 15 1011.6 - 0.0
25/01:30pm 26.6 26.8 20.2 68 4.2 E 19 28 10 15 1012.2 - 0.0
25/01:00pm 26.2 26.6 20.9 72 3.5 ESE 20 33 11 18 1012.7 1011.2 0.0
25/12:30pm 25.8 26.1 20.7 73 3.4 ESE 20 32 11 17 1013.1 - 0.0
25/12:00pm 25.6 26.1 21.1 76 3.0 ESE 20 32 11 17 1013.4 - 0.0
25/11:30am 25.8 26.2 20.7 73 3.4 ESE 19 28 10 15 1013.6 - 0.0

Other Formats:

Comma delimited format used in spreadsheet applications
http://www.bom.gov.au/fwo/IDW60801/IDW60801.96995.axf

JavaScript Object Notation format (JSON) in row-major order
http://www.bom.gov.au/fwo/IDW60801/IDW60801.96995.json